Time;durP1;ratioP1;P1;durP2;ratioP2;P2;SDS_P1;SDS_P2;PMS_P1;PMS_P2;Temp;Humidity;BMP_temperature;BMP_pressure;BME280_temperature;BME280_humidity;BME280_pressure;Samples;Min_cycle;Max_cycle;Signal;HPM_P1;HPM_P2
2021/06/23 00:02:21;;;;;;;0.20;0.20;;;;;;;10.15;82.75;101278.94;5068323;28;20059;-89
2021/06/23 00:04:56;;;;;;;0.15;0.15;;;;;;;10.11;82.33;101284.09;5068504;28;20381;-89
2021/06/23 00:07:34;;;;;;;0.17;0.17;;;;;;;9.99;83.23;101297.06;5066268;28;20044;-89
2021/06/23 00:10:07;;;;;;;0.20;0.20;;;;;;;9.77;84.03;101275.41;5055330;28;20056;-89
2021/06/23 00:12:44;;;;;;;0.20;0.20;;;;;;;10.09;83.05;101290.88;5073168;28;20071;-89
2021/06/23 00:15:19;;;;;;;0.20;0.20;;;;;;;10.04;81.71;101269.91;5076670;28;20049;-90
2021/06/23 00:17:54;;;;;;;0.20;0.20;;;;;;;10.02;81.66;101278.31;5062296;28;20044;-89
2021/06/23 00:20:28;;;;;;;0.20;0.20;;;;;;;9.98;81.98;101292.69;5054768;28;20037;-89
2021/06/23 00:23:06;;;;;;;0.20;0.20;;;;;;;10.03;82.95;101277.22;5061779;28;20045;-89
2021/06/23 00:25:39;;;;;;;;;;;;;;;9.83;81.75;101275.19;5059223;28;20048;-87
2021/06/23 00:28:09;;;;;;;0.25;0.25;;;;;;;9.88;83.17;101283.38;5070227;28;19935;-90
2021/06/23 00:30:43;;;;;;;0.20;0.20;;;;;;;9.87;82.82;101276.31;5062172;28;20528;-89
2021/06/23 00:33:42;;;;;;;0.20;0.20;;;;;;;9.86;82.24;101271.16;5055696;28;20052;-89
2021/06/23 00:36:22;;;;;;;0.28;0.28;;;;;;;9.90;83.05;101277.66;5065837;28;20048;-87
2021/06/23 00:38:56;;;;;;;0.20;0.20;;;;;;;9.77;83.06;101272.69;5054377;28;20059;-89
2021/06/23 00:41:29;;;;;;;0.20;0.20;;;;;;;9.82;83.60;101283.63;5068393;28;20056;-89
2021/06/23 00:44:04;;;;;;;0.13;0.13;;;;;;;9.74;83.69;101279.47;5054511;28;20060;-88
2021/06/23 00:46:34;;;;;;;0.20;0.20;;;;;;;9.74;83.32;101274.03;5066243;28;20041;-89
2021/06/23 00:49:14;;;;;;;0.20;0.20;;;;;;;9.76;84.39;101266.41;5059594;28;20056;-90
2021/06/23 00:52:08;;;;;;;0.13;0.13;;;;;;;9.83;84.24;101258.06;5067475;28;20511;-88
2021/06/23 00:54:52;;;;;;;0.20;0.20;;;;;;;9.78;84.27;101252.59;5060739;28;20485;-90
2021/06/23 00:57:32;;;;;;;0.43;0.32;;;;;;;9.85;82.32;101245.03;5062282;28;20056;-88
2021/06/23 01:00:08;;;;;;;0.15;0.15;;;;;;;9.84;83.25;101241.47;5054961;28;20064;-89
2021/06/23 01:02:39;;;;;;;0.20;0.20;;;;;;;9.87;83.68;101249.13;5067051;28;20045;-89
2021/06/23 01:05:16;;;;;;;0.20;0.20;;;;;;;9.81;84.42;101239.28;5061502;28;20041;-91
2021/06/23 01:07:52;;;;;;;0.20;0.20;;;;;;;9.70;83.70;101224.78;5075219;28;20048;-89
2021/06/23 01:10:30;;;;;;;0.20;0.20;;;;;;;9.91;83.87;101251.31;5054890;28;20056;-89
2021/06/23 01:13:37;;;;;;;0.10;0.10;;;;;;;9.91;83.17;101241.25;5069950;28;20268;-88
2021/06/23 01:16:18;;;;;;;0.20;0.20;;;;;;;9.88;83.83;101234.44;5070309;28;20044;-89
2021/06/23 01:18:54;;;;;;;0.20;0.20;;;;;;;9.97;83.75;101236.66;5066858;28;20294;-89
2021/06/23 01:21:32;;;;;;;0.30;0.30;;;;;;;10.04;83.62;101257.13;5059518;28;20071;-88
2021/06/23 01:24:08;;;;;;;0.30;0.30;;;;;;;10.08;83.59;101249.28;5064331;28;20048;-90
2021/06/23 01:26:41;;;;;;;0.40;0.30;;;;;;;10.09;84.18;101253.59;5086321;28;20393;-90
2021/06/23 01:29:20;;;;;;;0.20;0.20;;;;;;;10.11;84.54;101246.03;5068609;28;20056;-89
2021/06/23 01:32:02;;;;;;;0.20;0.20;;;;;;;10.15;83.46;101255.28;5074884;28;20036;-88
2021/06/23 01:34:35;;;;;;;0.20;0.20;;;;;;;10.25;84.28;101254.53;5071084;28;20582;-90
2021/06/23 01:37:34;;;;;;;0.25;0.20;;;;;;;10.36;84.57;101264.41;5058216;28;20505;-90
2021/06/23 01:40:16;;;;;;;0.22;0.22;;;;;;;10.24;84.66;101265.69;5061711;28;20401;-89
2021/06/23 01:43:16;;;;;;;0.10;0.10;;;;;;;10.24;84.40;101255.59;5059794;28;20056;-89
2021/06/23 01:45:50;;;;;;;0.30;0.30;;;;;;;10.36;84.48;101250.81;5058950;28;20043;-90
2021/06/23 01:48:28;;;;;;;0.10;0.10;;;;;;;10.36;84.39;101245.38;5062695;28;20044;-89
2021/06/23 01:51:05;;;;;;;0.20;0.20;;;;;;;10.38;83.60;101245.09;5061923;28;20052;-90
2021/06/23 01:53:48;;;;;;;0.30;0.30;;;;;;;10.37;83.93;101244.28;5061670;28;20504;-90
2021/06/23 01:56:25;;;;;;;0.30;0.30;;;;;;;10.40;84.12;101258.44;5052523;28;20044;-90
2021/06/23 01:59:22;;;;;;;0.30;0.30;;;;;;;10.38;84.34;101259.53;5062975;28;20056;-88
2021/06/23 02:02:24;;;;;;;0.20;0.20;;;;;;;10.45;83.83;101262.00;5067923;28;20048;-90
2021/06/23 02:05:04;;;;;;;0.20;0.20;;;;;;;10.49;83.40;101267.75;5063737;28;20385;-90
2021/06/23 02:07:55;;;;;;;0.20;0.20;;;;;;;10.46;84.08;101271.00;5064101;28;20482;-90
2021/06/23 02:11:02;;;;;;;0.17;0.17;;;;;;;10.46;83.47;101260.13;5059174;28;20445;-91
2021/06/23 02:14:17;;;;;;;0.20;0.20;;;;;;;10.54;83.10;101276.75;5066741;28;20045;-91
2021/06/23 02:16:57;;;;;;;0.30;0.30;;;;;;;10.59;83.60;101272.41;5069391;28;20056;-91
2021/06/23 02:19:38;;;;;;;0.20;0.20;;;;;;;10.54;83.15;101263.13;5067011;28;20044;-90
2021/06/23 02:22:24;;;;;;;0.20;0.20;;;;;;;10.58;82.55;101265.31;5070573;28;20055;-92
2021/06/23 02:25:09;;;;;;;0.22;0.22;;;;;;;10.66;83.81;101284.69;5060052;28;20496;-91
2021/06/23 02:28:05;;;;;;;0.20;0.20;;;;;;;10.70;84.99;101291.25;5061581;28;20052;-90
2021/06/23 02:30:40;;;;;;;0.30;0.30;;;;;;;10.66;84.59;101289.31;5070369;28;20044;-89
2021/06/23 02:33:40;;;;;;;0.22;0.22;;;;;;;10.70;85.01;101293.97;5055086;28;20051;-92
2021/06/23 02:36:23;;;;;;;0.20;0.20;;;;;;;10.68;85.06;101290.69;5060380;28;20513;-91
2021/06/23 02:38:57;;;;;;;0.20;0.20;;;;;;;10.66;84.61;101276.53;5067135;28;20053;-90
2021/06/23 02:41:32;;;;;;;0.20;0.20;;;;;;;10.72;84.89;101288.25;5064532;28;20048;-91
2021/06/23 02:44:06;;;;;;;0.20;0.20;;;;;;;10.71;85.04;101286.63;5068560;28;20072;-90
2021/06/23 02:46:43;;;;;;;0.20;0.20;;;;;;;10.75;84.91;101300.53;5070763;28;20036;-92
2021/06/23 02:49:24;;;;;;;0.20;0.20;;;;;;;10.74;85.48;101309.78;5068582;28;20045;-89
2021/06/23 02:51:57;;;;;;;0.20;0.20;;;;;;;10.81;84.02;101313.91;5066122;28;20540;-90
2021/06/23 02:54:26;;;;;;;0.30;0.30;;;;;;;10.87;83.16;101309.28;5056133;28;20072;-90
2021/06/23 02:57:17;;;;;;;0.20;0.20;;;;;;;10.79;83.74;101315.25;5065478;28;20052;-89
2021/06/23 02:59:56;;;;;;;0.20;0.20;;;;;;;10.75;84.86;101312.22;5070221;28;20065;-90
2021/06/23 03:02:36;;;;;;;0.20;0.20;;;;;;;10.81;83.93;101313.06;5075955;28;20060;-89
2021/06/23 03:05:11;;;;;;;0.28;0.28;;;;;;;10.67;84.76;101294.47;5053610;28;20409;-89
2021/06/23 03:07:47;;;;;;;0.30;0.20;;;;;;;10.82;83.77;101312.78;5074060;28;20041;-90
2021/06/23 03:10:30;;;;;;;0.20;0.20;;;;;;;10.74;84.49;101318.75;5076336;28;20082;-89
2021/06/23 03:13:24;;;;;;;0.20;0.20;;;;;;;10.76;85.38;101335.66;5066022;28;20055;-89
2021/06/23 03:16:10;;;;;;;0.30;0.30;;;;;;;10.81;84.53;101341.13;5062582;28;20540;-90
2021/06/23 03:18:47;;;;;;;0.20;0.20;;;;;;;10.78;85.13;101346.28;5062894;28;20036;-90
2021/06/23 03:21:26;;;;;;;0.30;0.30;;;;;;;10.77;84.39;101350.91;5060573;28;20049;-88
2021/06/23 03:23:59;;;;;;;0.30;0.30;;;;;;;10.62;85.66;101329.88;5064000;28;20056;-89
2021/06/23 03:26:35;;;;;;;0.20;0.20;;;;;;;10.80;85.36;101342.22;5069858;28;20064;-88
2021/06/23 03:29:19;;;;;;;0.20;0.20;;;;;;;10.93;84.93;101353.69;5057575;28;20059;-89
2021/06/23 03:31:55;;;;;;;0.20;0.20;;;;;;;10.99;84.23;101349.91;5064851;28;20044;-90
2021/06/23 03:34:35;;;;;;;0.20;0.20;;;;;;;10.95;84.02;101340.63;5073441;28;20063;-89
2021/06/23 03:37:05;;;;;;;0.20;0.20;;;;;;;11.04;83.98;101342.56;5063905;28;20048;-89
2021/06/23 03:39:45;;;;;;;0.20;0.20;;;;;;;11.02;84.20;101333.84;5067485;28;20052;-90
2021/06/23 03:42:21;;;;;;;0.20;0.20;;;;;;;11.19;84.46;101343.72;5062458;28;20052;-89
2021/06/23 03:44:57;;;;;;;0.20;0.20;;;;;;;11.12;84.63;101359.50;5058693;28;20047;-88
2021/06/23 03:47:32;;;;;;;0.20;0.20;;;;;;;11.12;84.83;101367.69;5058874;28;20045;-89
2021/06/23 03:50:13;;;;;;;0.20;0.20;;;;;;;11.14;84.93;101368.22;5066077;28;20053;-90
2021/06/23 03:52:49;;;;;;;0.20;0.20;;;;;;;11.25;84.37;101360.91;5064432;28;20056;-90
2021/06/23 03:55:25;;;;;;;0.22;0.20;;;;;;;11.15;83.70;101364.41;5069185;28;20409;-90
2021/06/23 03:57:59;;;;;;;0.20;0.20;;;;;;;11.14;84.61;101360.84;5068044;28;20062;-89
2021/06/23 04:00:34;;;;;;;0.20;0.20;;;;;;;11.06;84.43;101370.38;5063703;28;20048;-90
2021/06/23 04:03:28;;;;;;;0.20;0.20;;;;;;;11.11;84.18;101360.59;5061306;28;20036;-89
2021/06/23 04:06:33;;;;;;;0.20;0.20;;;;;;;11.30;84.53;101359.00;5075228;28;20401;-90
2021/06/23 04:09:30;;;;;;;0.20;0.20;;;;;;;11.27;84.25;101375.91;5061642;28;20162;-90
2021/06/23 04:12:07;;;;;;;0.30;0.30;;;;;;;11.25;84.42;101388.94;5064464;28;20425;-89
2021/06/23 04:14:52;;;;;;;0.30;0.30;;;;;;;11.25;85.59;101374.53;5060732;28;20063;-89
2021/06/23 04:17:25;;;;;;;0.40;0.30;;;;;;;11.30;85.64;101366.38;5059070;28;20048;-91
2021/06/23 04:19:54;;;;;;;0.20;0.20;;;;;;;11.39;85.48;101371.03;5060044;28;20041;-90
2021/06/23 04:22:49;;;;;;;0.52;0.22;;;;;;;11.38;85.05;101385.75;5070336;28;20064;-88
2021/06/23 04:25:20;;;;;;;0.20;0.20;;;;;;;11.43;84.68;101382.19;5059445;28;20051;-89
2021/06/23 04:27:54;;;;;;;0.20;0.20;;;;;;;11.50;85.84;101380.06;5063184;28;20052;-90
2021/06/23 04:30:27;;;;;;;0.20;0.20;;;;;;;11.52;84.70;101375.16;5063182;28;20383;-89
2021/06/23 04:33:02;;;;;;;0.20;0.20;;;;;;;11.57;84.40;101368.88;5055486;28;20071;-89
2021/06/23 04:35:42;;;;;;;0.30;0.30;;;;;;;11.55;84.28;101339.16;5062529;28;20037;-89
2021/06/23 04:38:20;;;;;;;0.20;0.20;;;;;;;11.68;84.30;101350.63;5064792;28;20060;-87
2021/06/23 04:40:49;;;;;;;0.20;0.20;;;;;;;11.68;84.75;101345.19;5067841;28;20053;-90
2021/06/23 04:43:23;;;;;;;0.30;0.30;;;;;;;11.71;83.56;101355.53;5058408;28;20077;-88
2021/06/23 04:45:57;;;;;;;0.20;0.20;;;;;;;11.78;84.00;101353.38;5060662;28;20615;-88
2021/06/23 04:48:33;;;;;;;0.20;0.20;;;;;;;11.79;84.72;101352.28;5066605;28;20052;-88
2021/06/23 04:51:15;;;;;;;0.28;0.28;;;;;;;12.00;84.46;101353.16;5062790;28;20416;-89
2021/06/23 04:53:51;;;;;;;0.20;0.20;;;;;;;12.08;84.49;101351.78;5067883;28;20059;-90
2021/06/23 04:56:25;;;;;;;0.20;0.20;;;;;;;12.29;84.10;101349.88;5054253;28;20061;-89
2021/06/23 04:59:00;;;;;;;0.20;0.20;;;;;;;12.51;82.74;101351.44;5054399;28;20492;-89
2021/06/23 05:01:35;;;;;;;0.20;0.20;;;;;;;12.50;82.26;101353.38;5065248;28;20052;-90
2021/06/23 05:04:05;;;;;;;0.20;0.20;;;;;;;12.51;82.43;101354.19;5066756;28;20053;-87
2021/06/23 05:06:38;;;;;;;0.30;0.30;;;;;;;12.65;82.18;101354.41;5067009;28;20048;-89
2021/06/23 05:09:13;;;;;;;0.20;0.20;;;;;;;13.07;81.29;101364.13;5054256;28;20049;-88
2021/06/23 05:11:45;;;;;;;0.30;0.30;;;;;;;13.74;78.86;101359.13;5060116;28;20056;-89
2021/06/23 05:14:14;;;;;;;0.20;0.20;;;;;;;13.63;80.22;101365.78;5056128;28;20055;-87
2021/06/23 05:16:50;;;;;;;0.20;0.20;;;;;;;14.23;79.02;101365.56;5061050;28;20524;-88
2021/06/23 05:19:24;;;;;;;0.30;0.30;;;;;;;13.66;79.21;101370.66;5057135;28;20123;-88
2021/06/23 05:22:01;;;;;;;0.30;0.30;;;;;;;13.63;79.41;101387.66;5053529;28;20045;-88
2021/06/23 05:24:38;;;;;;;0.22;0.22;;;;;;;13.51;80.32;101390.72;5054864;28;20075;-89
2021/06/23 05:27:12;;;;;;;0.20;0.20;;;;;;;13.49;80.69;101387.47;5062742;28;20473;-89
2021/06/23 05:29:46;;;;;;;0.20;0.20;;;;;;;13.41;80.43;101364.25;5061360;28;20037;-88
2021/06/23 05:32:21;;;;;;;0.20;0.20;;;;;;;13.30;81.19;101379.06;5062210;28;20052;-89
2021/06/23 05:34:56;;;;;;;0.20;0.20;;;;;;;13.33;82.15;101372.19;5062416;28;20726;-88
2021/06/23 05:37:30;;;;;;;0.40;0.30;;;;;;;13.60;79.77;101358.94;5055007;28;20045;-88
2021/06/23 05:40:02;;;;;;;0.28;0.28;;;;;;;13.82;79.24;101354.94;5059619;28;20052;-88
2021/06/23 05:42:38;;;;;;;0.30;0.30;;;;;;;14.89;77.19;101360.53;5052723;28;20482;-89
2021/06/23 05:45:12;;;;;;;0.30;0.30;;;;;;;16.00;71.77;101357.63;5058927;28;20064;-88
2021/06/23 05:47:40;;;;;;;0.30;0.30;;;;;;;16.32;71.66;101340.31;5069452;28;20499;-89
2021/06/23 05:50:14;;;;;;;0.20;0.20;;;;;;;16.47;72.72;101336.47;5058163;28;20052;-88
2021/06/23 05:52:49;;;;;;;0.22;0.22;;;;;;;16.03;71.87;101337.78;5083450;28;20526;-89
2021/06/23 05:55:25;;;;;;;0.32;0.20;;;;;;;15.98;74.23;101346.94;5063227;28;20131;-87
2021/06/23 05:57:54;;;;;;;0.22;0.22;;;;;;;15.97;73.15;101347.25;5062665;28;20049;-86
2021/06/23 06:00:28;;;;;;;0.20;0.20;;;;;;;15.87;74.49;101364.69;5053311;28;20481;-89
2021/06/23 06:03:02;;;;;;;0.20;0.20;;;;;;;15.83;73.07;101362.84;5069279;28;20061;-89
2021/06/23 06:05:37;;;;;;;0.20;0.20;;;;;;;15.93;74.86;101370.91;5060591;28;20045;-89
2021/06/23 06:08:07;;;;;;;0.20;0.20;;;;;;;15.91;72.54;101382.19;5062020;28;20056;-89
2021/06/23 06:10:41;;;;;;;0.80;0.25;;;;;;;15.82;73.57;101383.97;5058310;28;20052;-89
2021/06/23 06:13:14;;;;;;;0.25;0.25;;;;;;;15.51;75.36;101397.28;5064218;28;20043;-89
2021/06/23 06:15:48;;;;;;;0.30;0.30;;;;;;;15.24;75.84;101415.22;5060053;28;20033;-90
2021/06/23 06:18:17;;;;;;;0.20;0.20;;;;;;;15.01;75.14;101412.19;5067240;28;20114;-88
2021/06/23 06:20:53;;;;;;;0.30;0.30;;;;;;;15.10;75.73;101407.69;5065781;28;20049;-88
2021/06/23 06:23:28;;;;;;;0.28;0.28;;;;;;;15.13;75.62;101407.13;5058756;28;20458;-89
2021/06/23 06:26:04;;;;;;;0.30;0.30;;;;;;;15.23;74.45;101410.81;5058369;28;20052;-85
2021/06/23 06:28:38;;;;;;;0.30;0.30;;;;;;;15.27;77.56;101409.97;5068450;28;20055;-87
2021/06/23 06:31:12;;;;;;;0.40;0.30;;;;;;;15.46;76.04;101422.88;5063299;28;21315;-88
2021/06/23 06:33:48;;;;;;;0.25;0.25;;;;;;;15.97;77.46;101421.34;5056390;28;20866;-88
2021/06/23 06:36:21;;;;;;;0.20;0.20;;;;;;;15.87;72.71;101425.06;5058322;28;20048;-88
2021/06/23 06:38:54;;;;;;;0.20;0.20;;;;;;;15.56;74.81;101432.91;5058340;28;20059;-84
2021/06/23 06:41:29;;;;;;;0.25;0.25;;;;;;;15.39;75.75;101428.72;5063585;28;20071;-87
2021/06/23 06:44:02;;;;;;;0.20;0.20;;;;;;;15.27;77.42;101426.41;5063476;28;20049;-86
2021/06/23 06:46:36;;;;;;;0.20;0.20;;;;;;;15.42;77.40;101419.09;5060982;28;20056;-85
2021/06/23 06:49:06;;;;;;;0.30;0.30;;;;;;;15.90;72.97;101415.44;5061793;28;20044;-86
2021/06/23 06:51:39;;;;;;;0.20;0.20;;;;;;;16.02;70.39;101404.81;5062949;28;20056;-89
2021/06/23 06:54:14;;;;;;;0.22;0.22;;;;;;;16.27;72.07;101408.25;5068925;28;20554;-84
2021/06/23 06:56:48;;;;;;;0.30;0.30;;;;;;;16.47;75.80;101399.66;5058865;28;20052;-86
2021/06/23 06:59:22;;;;;;;0.22;0.22;;;;;;;16.03;74.85;101406.41;5064182;28;20045;-89
2021/06/23 07:01:51;;;;;;;0.20;0.20;;;;;;;15.95;72.64;101410.69;5058053;28;20056;-84
2021/06/23 07:04:25;;;;;;;0.20;0.20;;;;;;;15.98;72.90;101399.09;5058522;28;20056;-85
2021/06/23 07:06:58;;;;;;;0.20;0.20;;;;;;;16.25;71.77;101400.28;5058204;28;20051;-87
2021/06/23 07:09:31;;;;;;;0.30;0.30;;;;;;;16.42;73.55;101405.25;5058980;28;21359;-85
2021/06/23 07:12:01;;;;;;;0.30;0.30;;;;;;;16.18;70.18;101401.81;5058566;28;20056;-88
2021/06/23 07:14:34;;;;;;;0.20;0.20;;;;;;;16.27;69.49;101403.56;5060277;28;20056;-84
2021/06/23 07:17:08;;;;;;;0.52;0.20;;;;;;;16.54;69.32;101410.25;5059386;28;20057;-87
2021/06/23 07:19:41;;;;;;;0.20;0.20;;;;;;;16.22;70.24;101419.31;5057850;28;20071;-86
2021/06/23 07:22:09;;;;;;;0.20;0.20;;;;;;;16.10;72.77;101426.09;5057050;28;20044;-86
2021/06/23 07:24:45;;;;;;;0.20;0.20;;;;;;;15.75;75.81;101430.16;5055811;28;20697;-87
2021/06/23 07:27:15;;;;;;;0.30;0.30;;;;;;;15.70;74.33;101436.56;5057784;28;20062;-85
2021/06/23 07:29:49;;;;;;;0.20;0.20;;;;;;;16.00;75.77;101430.94;5062801;28;20052;-86
2021/06/23 07:32:22;;;;;;;0.30;0.28;;;;;;;15.89;72.48;101424.78;5064905;28;20072;-84
2021/06/23 07:37:37;;;;;;;0.30;0.30;;;;;;;15.94;72.32;101416.47;5060866;28;20055;-84
2021/06/23 07:40:12;;;;;;;0.20;0.20;;;;;;;15.97;71.95;101411.19;5065824;28;20060;-84
2021/06/23 07:42:47;;;;;;;0.30;0.30;;;;;;;15.87;74.31;101430.56;5059717;28;20051;-88
2021/06/23 07:45:20;;;;;;;0.20;0.20;;;;;;;15.81;73.68;101426.25;5063943;28;20487;-86
2021/06/23 07:47:53;;;;;;;0.30;0.30;;;;;;;16.04;71.88;101434.72;5065177;28;20066;-86
2021/06/23 07:50:34;;;;;;;0.20;0.20;;;;;;;16.09;70.67;101432.69;5063458;28;20391;-90
2021/06/23 07:53:07;;;;;;;0.20;0.20;;;;;;;15.98;71.77;101428.50;5057455;28;20048;-89
2021/06/23 07:55:49;;;;;;;0.20;0.20;;;;;;;16.24;70.70;101436.31;5061081;28;20044;-84
2021/06/23 08:01:44;;;;;;;0.20;0.20;;;;;;;16.58;68.71;101432.44;5068261;28;20048;-87
2021/06/23 08:09:56;;;;;;;0.20;0.20;;;;;;;16.06;70.00;101440.72;5054944;28;20049;-87
2021/06/23 08:12:30;;;;;;;0.30;0.30;;;;;;;15.84;69.44;101446.81;5056311;28;20045;-88
2021/06/23 08:15:00;;;;;;;0.20;0.20;;;;;;;16.08;69.96;101444.78;5061479;28;20060;-87
2021/06/23 08:17:33;;;;;;;0.20;0.20;;;;;;;16.06;70.87;101452.53;5055132;28;20041;-89
2021/06/23 08:20:07;;;;;;;0.10;0.10;;;;;;;15.79;73.55;101455.91;5060266;28;20072;-87
2021/06/23 08:22:41;;;;;;;0.52;0.20;;;;;;;15.80;73.97;101447.41;5060791;28;20059;-89
2021/06/23 08:25:14;;;;;;;0.20;0.20;;;;;;;15.77;70.90;101445.22;5057922;28;20055;-85
2021/06/23 08:27:48;;;;;;;0.20;0.20;;;;;;;15.64;70.95;101454.19;5060763;28;20071;-87
2021/06/23 08:30:24;;;;;;;0.20;0.20;;;;;;;15.81;70.83;101446.28;5056187;28;20392;-88
2021/06/23 08:33:01;;;;;;;0.20;0.20;;;;;;;16.29;69.55;101439.78;5066928;28;20056;-88
2021/06/23 08:35:34;;;;;;;;;;;;;;;16.23;70.50;101441.00;5056882;28;20065;-86
2021/06/23 08:38:07;;;;;;;0.20;0.20;;;;;;;16.47;69.72;101445.53;5057311;28;19921;-87
2021/06/23 08:40:42;;;;;;;0.20;0.20;;;;;;;16.37;69.91;101448.47;5061135;28;20045;-87
2021/06/23 08:43:16;;;;;;;0.30;0.30;;;;;;;16.55;70.95;101452.28;5066385;28;20051;-86
2021/06/23 08:45:50;;;;;;;0.20;0.20;;;;;;;16.61;68.93;101457.41;5058037;28;20048;-88
2021/06/23 08:48:24;;;;;;;0.30;0.30;;;;;;;16.70;68.03;101446.50;5062210;28;20063;-88
2021/06/23 08:50:53;;;;;;;0.20;0.20;;;;;;;16.55;66.33;101444.03;5054840;28;20044;-89
2021/06/23 08:53:27;;;;;;;0.20;0.20;;;;;;;17.04;66.66;101444.53;5060688;28;20052;-89
2021/06/23 08:56:01;;;;;;;0.20;0.20;;;;;;;16.78;66.62;101453.25;5062277;28;20045;-90
2021/06/23 08:58:34;;;;;;;0.25;0.25;;;;;;;16.57;64.77;101456.38;5056447;28;20059;-89
2021/06/23 09:01:09;;;;;;;0.22;0.22;;;;;;;16.83;65.82;101437.47;5059735;28;20036;-88
2021/06/23 09:04:00;;;;;;;0.15;0.15;;;;;;;16.99;67.91;101450.97;5062724;28;20037;-88
2021/06/23 09:06:45;;;;;;;0.20;0.20;;;;;;;17.38;66.13;101452.38;5060627;28;20060;-88
2021/06/23 09:09:24;;;;;;;0.22;0.22;;;;;;;17.21;67.41;101464.00;5058514;28;20056;-88
2021/06/23 09:11:59;;;;;;;0.20;0.20;;;;;;;17.43;67.83;101455.03;5057120;28;20041;-88
2021/06/23 09:14:34;;;;;;;0.10;0.10;;;;;;;17.22;65.39;101460.13;5051750;28;20049;-89
2021/06/23 09:17:14;;;;;;;0.20;0.20;;;;;;;17.04;67.36;101453.63;5052356;28;20052;-89
2021/06/23 09:19:44;;;;;;;0.20;0.20;;;;;;;16.93;67.77;101447.50;5055422;28;20044;-89
2021/06/23 09:22:39;;;;;;;0.20;0.20;;;;;;;16.84;66.51;101438.28;5059431;28;20040;-89
2021/06/23 09:25:25;;;;;;;0.20;0.20;;;;;;;16.78;70.23;101442.25;5059690;28;20061;-89
2021/06/23 09:28:01;;;;;;;0.20;0.20;;;;;;;16.75;67.72;101434.59;5063109;28;20053;-88
2021/06/23 09:30:36;;;;;;;0.20;0.20;;;;;;;17.12;66.83;101438.31;5068004;28;20049;-88
2021/06/23 09:33:20;;;;;;;0.20;0.20;;;;;;;17.60;65.00;101437.88;5064360;28;20044;-86
2021/06/23 09:35:59;;;;;;;0.20;0.20;;;;;;;17.93;64.97;101434.94;5059445;28;20056;-89
2021/06/23 09:38:37;;;;;;;0.20;0.20;;;;;;;18.45;67.01;101441.94;5053053;28;20394;-88
2021/06/23 09:41:25;;;;;;;0.20;0.20;;;;;;;18.40;62.37;101448.41;5070611;28;20036;-85
2021/06/23 09:44:00;;;;;;;0.30;0.30;;;;;;;18.32;62.08;101451.94;5054834;28;20397;-87
2021/06/23 09:46:35;;;;;;;0.20;0.20;;;;;;;18.15;59.62;101456.19;5059180;28;20043;-87
2021/06/23 09:49:13;;;;;;;0.20;0.20;;;;;;;17.80;61.01;101450.38;5057797;28;20049;-85
2021/06/23 09:51:49;;;;;;;0.20;0.20;;;;;;;17.59;61.84;101438.97;5059942;28;20056;-87
2021/06/23 09:54:24;;;;;;;0.20;0.20;;;;;;;17.74;63.36;101439.78;5076833;28;20048;-88
2021/06/23 09:57:13;;;;;;;0.20;0.20;;;;;;;17.90;62.64;101442.97;5076303;28;20049;-86
2021/06/23 09:59:49;;;;;;;0.10;0.10;;;;;;;17.72;61.26;101425.50;5065211;28;20052;-86
2021/06/23 10:02:26;;;;;;;0.20;0.20;;;;;;;17.88;65.13;101432.28;5060071;28;20044;-86
2021/06/23 10:05:26;;;;;;;0.20;0.20;;;;;;;18.47;58.91;101442.47;5062869;28;20075;-87
2021/06/23 10:08:00;;;;;;;0.20;0.20;;;;;;;18.89;60.42;101434.75;5057663;28;20057;-89
2021/06/23 10:10:44;;;;;;;0.20;0.20;;;;;;;18.15;58.75;101449.88;5060316;28;20037;-86
2021/06/23 10:13:19;;;;;;;0.25;0.25;;;;;;;18.22;61.81;101446.69;5057759;28;20040;-87
2021/06/23 10:15:49;;;;;;;0.20;0.20;;;;;;;18.38;62.32;101439.66;5046302;28;20049;-85
2021/06/23 10:18:24;;;;;;;0.15;0.15;;;;;;;18.08;62.08;101442.03;5052809;28;20048;-78
2021/06/23 10:21:06;;;;;;;0.10;0.10;;;;;;;17.80;59.96;101439.34;5044570;28;20064;-78
2021/06/23 10:23:39;;;;;;;0.20;0.20;;;;;;;17.92;61.86;101432.50;5041585;28;20068;-78
2021/06/23 10:26:14;;;;;;;0.20;0.20;;;;;;;17.86;61.08;101437.28;5052873;28;20060;-77
2021/06/23 10:28:50;;;;;;;0.20;0.20;;;;;;;17.98;64.06;101443.09;5044533;28;20056;-78
2021/06/23 10:31:26;;;;;;;0.20;0.20;;;;;;;18.02;64.08;101454.28;5044864;28;20361;-77
2021/06/23 10:33:59;;;;;;;0.20;0.20;;;;;;;17.92;63.40;101463.59;5045333;28;20119;-78
2021/06/23 10:36:34;;;;;;;0.20;0.20;;;;;;;17.88;66.70;101457.06;5042484;28;20063;-78
2021/06/23 10:39:09;;;;;;;0.20;0.20;;;;;;;18.08;64.37;101457.75;5041029;28;20079;-78
2021/06/23 10:41:45;;;;;;;0.20;0.20;;;;;;;18.04;65.45;101454.81;5041172;28;20056;-85
2021/06/23 10:44:24;;;;;;;0.20;0.20;;;;;;;18.41;60.08;101449.22;5054390;28;20049;-77
2021/06/23 10:47:01;;;;;;;0.20;0.20;;;;;;;18.63;61.01;101457.47;5040525;28;20052;-88
2021/06/23 10:49:41;;;;;;;0.20;0.20;;;;;;;18.31;64.23;101447.53;5041435;28;20053;-77
2021/06/23 10:52:42;;;;;;;0.20;0.20;;;;;;;18.00;60.56;101446.34;5041188;28;20064;-78
2021/06/23 10:55:44;;;;;;;0.20;0.20;;;;;;;18.13;59.53;101450.19;5055007;28;20056;-78
2021/06/23 10:58:17;;;;;;;0.10;0.10;;;;;;;18.12;60.55;101450.50;5051428;28;20056;-78
2021/06/23 11:01:05;;;;;;;0.15;0.15;;;;;;;18.54;65.01;101453.84;5041569;28;20049;-78
2021/06/23 11:04:00;;;;;;;0.20;0.20;;;;;;;18.70;62.54;101455.09;5045393;28;20060;-77
2021/06/23 11:06:39;;;;;;;0.10;0.10;;;;;;;19.30;61.26;101460.38;5042615;28;20056;-78
2021/06/23 11:09:26;;;;;;;0.10;0.10;;;;;;;19.18;56.52;101450.78;5042901;28;21465;-78
2021/06/23 11:11:59;;;;;;;0.15;0.15;;;;;;;18.85;59.87;101455.78;5044808;28;20056;-77
2021/06/23 11:14:33;;;;;;;0.20;0.20;;;;;;;18.86;56.76;101457.41;5047035;28;20385;-77
2021/06/23 11:17:29;;;;;;;0.10;0.10;;;;;;;18.53;59.94;101460.47;5045244;28;20056;-78
2021/06/23 11:20:03;;;;;;;0.20;0.20;;;;;;;18.72;56.95;101462.22;5043368;28;20047;-78
2021/06/23 11:22:36;;;;;;;0.20;0.20;;;;;;;18.36;57.31;101458.44;5042539;28;20055;-77
2021/06/23 11:25:21;;;;;;;0.20;0.20;;;;;;;18.29;58.65;101458.06;5040474;28;20053;-78
2021/06/23 11:28:25;;;;;;;0.30;0.30;;;;;;;18.14;58.06;101462.81;5046828;28;20056;-78
2021/06/23 11:31:06;;;;;;;0.20;0.20;;;;;;;18.03;60.79;101466.94;5045699;28;20052;-78
2021/06/23 11:33:51;;;;;;;0.10;0.10;;;;;;;18.29;58.32;101472.66;5044535;28;20068;-77
2021/06/23 11:36:25;;;;;;;0.10;0.10;;;;;;;18.34;60.49;101469.78;5047926;28;20055;-78
2021/06/23 11:39:00;;;;;;;0.15;0.15;;;;;;;18.11;58.56;101482.72;5054943;28;20059;-77
2021/06/23 11:41:35;;;;;;;0.20;0.20;;;;;;;18.32;57.27;101482.25;5049849;28;20469;-84
2021/06/23 11:44:08;;;;;;;0.20;0.20;;;;;;;18.44;56.40;101478.94;5042961;28;20136;-86
2021/06/23 11:46:41;;;;;;;0.10;0.10;;;;;;;18.42;58.09;101484.75;5042863;28;20056;-86
2021/06/23 11:49:15;;;;;;;0.13;0.13;;;;;;;18.49;59.54;101482.38;5049481;28;20048;-88
2021/06/23 11:51:48;;;;;;;0.10;0.10;;;;;;;18.51;57.48;101476.53;5039383;28;20057;-87
2021/06/23 11:54:22;;;;;;;0.20;0.20;;;;;;;18.59;57.59;101486.81;5041649;28;21164;-87
2021/06/23 11:56:57;;;;;;;0.10;0.10;;;;;;;18.67;58.56;101476.94;5045788;28;20053;-85
2021/06/23 11:59:30;;;;;;;0.20;0.20;;;;;;;18.83;57.07;101483.69;5045643;28;20060;-87
2021/06/23 12:01:59;;;;;;;0.20;0.20;;;;;;;18.85;58.09;101489.72;5040095;28;20057;-84
2021/06/23 12:04:31;;;;;;;0.10;0.10;;;;;;;19.24;56.92;101476.28;5050313;28;20564;-86
2021/06/23 12:07:04;;;;;;;;;;;;;;;19.64;58.63;101475.41;5049397;28;20643;-87
2021/06/23 12:09:37;;;;;;;0.20;0.20;;;;;;;20.09;58.23;101469.59;5062815;28;19931;-88
2021/06/23 12:12:12;;;;;;;0.10;0.10;;;;;;;20.41;57.32;101473.00;5057996;28;20903;-88
2021/06/23 12:14:46;;;;;;;0.13;0.13;;;;;;;20.49;60.00;101468.59;5040343;28;20464;-83
2021/06/23 12:17:21;;;;;;;0.20;0.20;;;;;;;20.73;53.62;101455.06;5041363;28;20044;-86
2021/06/23 12:20:01;;;;;;;0.10;0.10;;;;;;;21.13;54.23;101467.78;5042760;28;20064;-86
2021/06/23 12:22:34;;;;;;;0.20;0.20;;;;;;;21.59;50.84;101462.50;5048450;28;20067;-86
2021/06/23 12:25:03;;;;;;;0.10;0.10;;;;;;;21.37;56.84;101463.56;5045818;28;20053;-86
2021/06/23 12:27:39;;;;;;;0.20;0.20;;;;;;;20.87;53.65;101465.91;5047512;28;20052;-85